This is the latest recevied weather packets stored in our database for station/object WX6HNX-14. If no packets are shown the sender has not sent any weather packets the latest 1 day(s).
| Time | Temp. | Humidity | Pressure | Rain* | Wind** | Luminosity | Snow |
|---|---|---|---|---|---|---|---|
| 1778094060 | 21.11° C | 55% | 1019.5 hPa | 0 mm | - | - | - |
| 1778092859 | 20.56° C | 57% | 1019.8 hPa | 0 mm | - | - | - |
| 1778089858 | 19.44° C | 62% | 1020.4 hPa | 0 mm | - | - | - |
| 1778087458 | 18.33° C | 66% | 1020.7 hPa | 0 mm | - | - | - |
| 1778086859 | 18.33° C | 67% | 1020.8 hPa | 0 mm | - | - | - |
| 1778086258 | 17.78° C | 68% | 1020.8 hPa | 0 mm | - | - | - |
| 1778083778 | 17.22° C | 71% | 1021.1 hPa | 0 mm | - | - | - |
| 1778083478 | 16.67° C | 72% | 1021.2 hPa | 0 mm | - | - | - |
| 1778082878 | 16.11° C | 73% | 1021.2 hPa | 0 mm | - | - | - |
| 1778082578 | 16.11° C | 73% | 1021.2 hPa | 0 mm | - | - | - |
| 1778082278 | 16.11° C | 74% | 1021.2 hPa | 0 mm | - | - | - |
| 1778081678 | 15.56° C | 74% | 1021.2 hPa | 0 mm | - | - | - |
| 1778081379 | 15.56° C | 75% | 1021.2 hPa | 0 mm | - | - | - |
| 1778080778 | 15.56° C | 75% | 1021.3 hPa | 0 mm | - | - | - |
| 1778076845 | 13.89° C | 81% | 1021.1 hPa | 0 mm | - | - | - |
| 1778075645 | 12.78° C | 84% | 1020.7 hPa | 0 mm | - | - | - |
| 1778073244 | 11.67° C | 83% | 1020.2 hPa | 0 mm | - | - | - |
| 1778071745 | 12.22° C | 84% | 1020 hPa | 0 mm | - | - | - |
| 1778070705 | 11.67° C | 83% | 1019.9 hPa | 0 mm | - | - | - |
| 1778068214 | 12.78° C | 79% | 1019.8 hPa | 0 mm | - | - | - |
| 1778067013 | 12.78° C | 79% | 1019.8 hPa | 0 mm | - | - | - |
| 1778066114 | 12.78° C | 79% | 1019.6 hPa | 0 mm | - | - | - |
| 1778065812 | 12.78° C | 79% | 1019.7 hPa | 0 mm | - | - | - |
| 1778065512 | 12.78° C | 79% | 1019.7 hPa | 0 mm | - | - | - |
| 1778064872 | 12.78° C | 79% | 1019.7 hPa | 0 mm | - | - | - |
* Rain latest hour (hover to see other rain measurements)
** Current wind speed in m/s (hover to see current wind gust speed)